Time;durP1;ratioP1;P1;durP2;ratioP2;P2;SDS_P1;SDS_P2;PMS_P1;PMS_P2;Temp;Humidity;BMP_temperature;BMP_pressure;BME280_temperature;BME280_humidity;BME280_pressure;Samples;Min_cycle;Max_cycle;Signal;HPM_P1;HPM_P2
2022/04/22 00:00:37;;;;;;;3.00;2.80;;;11.60;99.90;;;;;;4996454;28;20636;-77
2022/04/22 00:03:06;;;;;;;2.70;2.50;;;11.50;99.90;;;;;;5002400;28;20232;-78
2022/04/22 00:05:33;;;;;;;2.70;2.50;;;11.60;99.90;;;;;;4999684;28;20225;-78
2022/04/22 00:08:00;;;;;;;2.85;2.65;;;11.60;99.90;;;;;;4997533;28;20220;-78
2022/04/22 00:10:27;;;;;;;3.80;3.40;;;11.60;99.90;;;;;;4999437;28;20232;-76
2022/04/22 00:12:54;;;;;;;2.60;2.40;;;11.60;99.90;;;;;;4996373;28;20219;-76
2022/04/22 00:15:22;;;;;;;3.20;2.72;;;11.60;99.90;;;;;;4998309;28;20775;-77
2022/04/22 00:17:50;;;;;;;3.00;2.80;;;11.60;99.90;;;;;;4996281;28;20311;-75
2022/04/22 00:20:17;;;;;;;3.08;2.88;;;11.60;99.90;;;;;;4997009;28;20271;-77
2022/04/22 00:22:45;;;;;;;2.90;2.60;;;11.50;99.90;;;;;;4995500;28;20192;-77
2022/04/22 00:25:13;;;;;;;3.17;2.97;;;11.50;99.90;;;;;;4994466;28;20228;-77
2022/04/22 00:27:41;;;;;;;3.05;2.85;;;11.50;99.90;;;;;;4995345;28;20212;-77
2022/04/22 00:30:10;;;;;;;2.85;2.65;;;11.50;99.90;;;;;;4995410;28;20283;-77
2022/04/22 00:32:39;;;;;;;2.70;2.50;;;11.50;99.90;;;;;;4997701;28;20219;-78
2022/04/22 00:35:07;;;;;;;3.30;3.00;;;11.50;99.90;;;;;;4990219;28;20212;-75
2022/04/22 00:37:34;;;;;;;3.35;3.05;;;11.50;99.90;;;;;;4993424;28;20202;-76
2022/04/22 00:40:01;;;;;;;3.30;3.00;;;11.50;99.90;;;;;;4995678;28;20311;-77
2022/04/22 00:42:28;;;;;;;3.28;3.08;;;11.50;99.90;;;;;;4991980;28;20191;-75
2022/04/22 00:44:57;;;;;;;3.30;3.10;;;11.50;99.90;;;;;;4997479;28;20304;-77
2022/04/22 00:47:24;;;;;;;3.30;3.00;;;11.50;99.90;;;;;;4998225;28;20231;-77
2022/04/22 00:49:53;;;;;;;3.25;2.72;;;11.50;99.90;;;;;;5006026;28;20273;-77
2022/04/22 00:52:20;;;;;;;3.90;2.92;;;11.40;99.90;;;;;;5020108;28;20563;-77
2022/04/22 00:54:48;;;;;;;3.47;3.25;;;11.40;99.90;;;;;;5007748;28;20224;-78
2022/04/22 00:57:18;;;;;;;2.65;2.47;;;11.40;99.90;;;;;;4999254;28;20355;-78
2022/04/22 00:59:46;;;;;;;3.17;2.88;;;11.40;99.90;;;;;;5000692;28;20217;-79
2022/04/22 01:02:13;;;;;;;3.47;3.17;;;11.40;99.90;;;;;;4997847;28;20205;-77
2022/04/22 01:10:10;;;;;;;3.08;2.88;;;11.40;99.90;;;;;;4999515;28;20223;-77
2022/04/22 01:12:38;;;;;;;2.90;2.70;;;11.40;99.90;;;;;;4996444;28;20263;-77
2022/04/22 01:15:06;;;;;;;3.28;2.97;;;11.40;99.90;;;;;;4998658;28;20220;-79
2022/04/22 01:17:33;;;;;;;3.45;3.15;;;11.40;99.90;;;;;;4996374;28;20231;-76
2022/04/22 01:20:00;;;;;;;3.47;3.00;;;11.30;99.90;;;;;;4995265;28;20220;-77
2022/04/22 01:22:28;;;;;;;3.65;3.20;;;11.30;99.90;;;;;;4997919;28;20204;-76
2022/04/22 01:24:57;;;;;;;3.17;2.92;;;11.30;99.90;;;;;;4997104;28;20754;-78
2022/04/22 01:27:26;;;;;;;3.30;3.00;;;11.30;99.90;;;;;;4999907;28;20211;-77
2022/04/22 01:29:54;;;;;;;3.22;3.03;;;11.20;99.90;;;;;;4996727;28;20221;-77
2022/04/22 01:32:21;;;;;;;3.13;2.92;;;11.20;99.90;;;;;;4999421;28;20197;-76
2022/04/22 01:34:48;;;;;;;2.95;2.75;;;11.20;99.90;;;;;;4999920;28;20224;-78
2022/04/22 01:37:15;;;;;;;3.13;2.92;;;11.20;99.90;;;;;;4998249;28;20894;-78
2022/04/22 01:39:43;;;;;;;3.08;2.88;;;11.20;99.90;;;;;;4999182;28;20277;-77
2022/04/22 01:42:10;;;;;;;3.35;2.70;;;11.20;99.90;;;;;;4998827;28;20208;-77
2022/04/22 01:44:37;;;;;;;3.13;2.83;;;11.20;99.90;;;;;;4997913;28;20279;-76
2022/04/22 01:47:05;;;;;;;3.47;3.22;;;11.20;99.90;;;;;;5000377;28;20193;-77
2022/04/22 01:49:32;;;;;;;3.00;2.65;;;11.20;99.90;;;;;;4997668;28;20236;-77
2022/04/22 01:52:00;;;;;;;3.60;3.30;;;11.20;99.90;;;;;;5002588;28;20196;-77
2022/04/22 01:54:27;;;;;;;3.00;2.80;;;11.20;99.90;;;;;;5001466;28;20234;-79
2022/04/22 01:56:56;;;;;;;3.15;2.85;;;11.20;99.90;;;;;;5000424;28;20569;-78
2022/04/22 01:59:23;;;;;;;3.00;2.80;;;11.20;99.90;;;;;;4999327;28;20233;-78
2022/04/22 02:01:50;;;;;;;3.00;2.80;;;11.20;99.90;;;;;;5000166;28;20204;-78
2022/04/22 02:04:17;;;;;;;2.65;2.45;;;11.20;99.90;;;;;;4997813;28;20225;-78
2022/04/22 02:06:44;;;;;;;3.20;3.00;;;11.20;99.90;;;;;;5001174;28;20266;-77
2022/04/22 02:09:11;;;;;;;2.97;2.78;;;11.20;99.90;;;;;;5003938;28;20224;-78
2022/04/22 02:11:40;;;;;;;3.00;2.80;;;11.20;99.90;;;;;;5003093;28;20204;-79
2022/04/22 02:14:09;;;;;;;2.80;2.60;;;11.20;99.90;;;;;;5002780;28;20230;-78
2022/04/22 02:16:36;;;;;;;3.72;3.42;;;11.20;99.90;;;;;;5001108;28;20200;-78
2022/04/22 02:19:04;;;;;;;4.38;3.45;;;11.20;99.90;;;;;;5000842;28;20237;-80
2022/04/22 02:21:31;;;;;;;3.50;3.20;;;11.20;99.90;;;;;;4998701;28;20200;-78
2022/04/22 02:23:58;;;;;;;4.00;2.95;;;11.10;99.90;;;;;;4996980;28;20200;-77
2022/04/22 02:26:25;;;;;;;3.15;2.95;;;11.10;99.90;;;;;;4996556;28;20193;-77
2022/04/22 02:28:51;;;;;;;3.75;3.45;;;11.10;99.90;;;;;;4998354;28;20212;-78
2022/04/22 02:31:19;;;;;;;3.50;3.30;;;11.10;99.90;;;;;;4997647;28;20306;-78
2022/04/22 02:33:46;;;;;;;3.05;2.85;;;11.00;99.90;;;;;;4997984;28;20196;-79
2022/04/22 02:36:16;;;;;;;3.47;3.17;;;11.00;99.90;;;;;;4999976;28;20196;-79
2022/04/22 02:38:43;;;;;;;3.17;2.88;;;11.00;99.90;;;;;;4997009;28;20224;-78
2022/04/22 02:46:40;;;;;;;2.80;2.60;;;11.00;99.90;;;;;;5002832;28;20274;-78
2022/04/22 02:49:07;;;;;;;2.85;2.65;;;11.00;99.90;;;;;;5000532;28;21334;-77
2022/04/22 02:51:34;;;;;;;2.83;2.63;;;11.00;99.90;;;;;;5000337;28;20244;-78
2022/04/22 02:54:01;;;;;;;2.90;2.70;;;11.10;99.90;;;;;;5000547;28;20674;-79
2022/04/22 02:56:30;;;;;;;3.38;3.08;;;11.10;99.90;;;;;;4997543;28;20216;-78
2022/04/22 02:58:58;;;;;;;3.30;3.00;;;11.00;99.90;;;;;;5002831;28;20236;-77
2022/04/22 03:01:25;;;;;;;2.88;2.67;;;11.00;99.90;;;;;;5000606;28;20694;-78
2022/04/22 03:03:53;;;;;;;3.63;3.33;;;11.00;99.90;;;;;;5001038;28;20259;-78
2022/04/22 03:06:23;;;;;;;3.40;3.20;;;10.90;99.90;;;;;;4998627;28;20215;-79
2022/04/22 03:08:50;;;;;;;2.83;2.63;;;10.90;99.90;;;;;;4997829;28;20219;-78
2022/04/22 03:11:21;;;;;;;3.50;3.20;;;10.90;99.90;;;;;;4998073;28;20234;-78
2022/04/22 03:13:49;;;;;;;3.10;2.90;;;10.90;99.90;;;;;;4997831;28;20319;-79
2022/04/22 03:16:17;;;;;;;3.17;2.97;;;10.90;99.90;;;;;;5001567;28;20248;-77
2022/04/22 03:18:44;;;;;;;3.38;3.10;;;10.90;99.90;;;;;;4998112;28;20311;-78
2022/04/22 03:21:13;;;;;;;3.22;3.03;;;10.90;99.90;;;;;;4998678;28;20216;-78
2022/04/22 03:23:40;;;;;;;3.60;3.30;;;10.90;99.90;;;;;;4994903;28;20212;-78
2022/04/22 03:26:07;;;;;;;3.35;3.15;;;10.90;99.90;;;;;;4999698;28;20224;-78
2022/04/22 03:28:34;;;;;;;3.53;3.25;;;10.80;99.90;;;;;;5000070;28;20224;-77
2022/04/22 03:31:01;;;;;;;3.45;3.25;;;10.80;99.90;;;;;;4998426;28;20715;-79
2022/04/22 03:33:28;;;;;;;3.80;3.50;;;10.80;99.90;;;;;;4997050;28;20287;-77
2022/04/22 03:35:55;;;;;;;4.03;3.72;;;10.70;99.90;;;;;;5001036;28;20220;-77
2022/04/22 03:38:24;;;;;;;3.65;3.35;;;10.70;99.90;;;;;;4998243;28;20714;-79
2022/04/22 03:40:53;;;;;;;3.50;3.30;;;10.60;99.90;;;;;;5000806;28;20673;-78
2022/04/22 03:43:21;;;;;;;3.17;2.88;;;10.60;99.90;;;;;;4996693;28;20259;-77
2022/04/22 03:45:48;;;;;;;3.75;3.45;;;10.60;99.90;;;;;;4995281;28;20307;-78
2022/04/22 03:48:15;;;;;;;3.50;3.10;;;10.60;99.90;;;;;;4995273;28;20225;-77
2022/04/22 03:50:43;;;;;;;3.80;3.50;;;10.60;99.90;;;;;;5030501;23;20737;-78
2022/04/22 03:53:12;;;;;;;4.07;3.28;;;10.60;99.90;;;;;;5014954;28;20200;-79
2022/04/22 03:55:42;;;;;;;3.40;3.20;;;10.50;99.90;;;;;;5020802;28;20306;-79
2022/04/22 03:58:11;;;;;;;3.60;3.30;;;10.50;99.90;;;;;;5018969;28;20582;-79
2022/04/22 04:00:39;;;;;;;4.10;3.80;;;10.40;99.90;;;;;;5006135;28;20228;-79
2022/04/22 04:03:07;;;;;;;3.20;3.00;;;10.40;99.90;;;;;;5003887;28;20285;-81
2022/04/22 04:05:34;;;;;;;3.63;3.33;;;10.40;99.90;;;;;;4998955;28;20232;-79
2022/04/22 04:08:01;;;;;;;4.00;3.70;;;10.40;99.90;;;;;;5001979;28;20279;-78
2022/04/22 04:16:01;;;;;;;3.53;3.22;;;10.50;99.90;;;;;;5001561;28;20696;-79
2022/04/22 04:18:29;;;;;;;3.80;3.25;;;10.50;99.90;;;;;;4999500;28;20266;-80
2022/04/22 04:23:41;;;;;;;3.60;3.03;;;10.50;99.90;;;;;;5000388;28;20282;-78
2022/04/22 04:26:09;;;;;;;3.40;3.10;;;10.50;99.90;;;;;;5003390;28;20228;-78
2022/04/22 04:28:38;;;;;;;3.50;3.30;;;10.50;99.90;;;;;;5000887;28;20203;-77
2022/04/22 04:31:06;;;;;;;3.85;3.50;;;10.50;99.90;;;;;;4995607;28;20274;-82
2022/04/22 04:33:33;;;;;;;3.67;3.38;;;10.50;99.90;;;;;;4997327;28;20582;-79
2022/04/22 04:36:01;;;;;;;3.60;3.30;;;10.50;99.90;;;;;;5001081;28;20276;-80
2022/04/22 04:38:29;;;;;;;3.30;3.10;;;10.50;99.90;;;;;;5001425;28;20212;-78
2022/04/22 04:40:56;;;;;;;3.50;3.25;;;10.50;99.90;;;;;;5001661;28;20219;-78
2022/04/22 04:43:24;;;;;;;3.58;3.38;;;10.50;99.90;;;;;;4998550;28;20211;-81
2022/04/22 04:45:52;;;;;;;3.67;3.28;;;10.50;99.90;;;;;;4998843;28;20227;-80
2022/04/22 04:48:19;;;;;;;3.40;3.20;;;10.50;99.90;;;;;;5003261;28;20207;-82
2022/04/22 04:50:47;;;;;;;3.75;3.45;;;10.50;99.90;;;;;;5002454;28;20228;-77
2022/04/22 04:53:14;;;;;;;4.60;3.33;;;10.50;99.90;;;;;;5000821;28;20298;-77
2022/04/22 04:55:42;;;;;;;3.72;3.42;;;10.60;99.90;;;;;;4998711;28;20263;-78
2022/04/22 04:58:10;;;;;;;3.42;3.22;;;10.60;99.90;;;;;;4996030;28;20713;-78
2022/04/22 05:00:37;;;;;;;3.45;3.15;;;10.60;99.90;;;;;;4998591;28;20714;-79
2022/04/22 05:03:06;;;;;;;3.33;3.13;;;10.60;99.90;;;;;;5003404;28;20193;-79
2022/04/22 05:05:33;;;;;;;3.85;3.45;;;10.60;99.90;;;;;;5005325;28;20228;-78
2022/04/22 05:08:01;;;;;;;3.83;3.53;;;10.60;99.90;;;;;;5001205;28;20215;-80
2022/04/22 05:10:29;;;;;;;3.85;3.55;;;10.50;99.90;;;;;;4999457;28;20225;-79
2022/04/22 05:12:57;;;;;;;4.25;3.95;;;10.50;99.90;;;;;;5005545;28;20203;-80
2022/04/22 05:15:25;;;;;;;3.80;3.50;;;10.50;99.90;;;;;;5001398;28;20220;-78
2022/04/22 05:17:53;;;;;;;3.78;3.50;;;10.50;99.90;;;;;;4996445;28;20208;-83
2022/04/22 05:20:25;;;;;;;4.20;3.80;;;10.60;99.90;;;;;;4995807;28;20484;-84
2022/04/22 05:22:52;;;;;;;3.47;3.17;;;10.60;99.90;;;;;;5000826;28;20227;-81
2022/04/22 05:25:21;;;;;;;3.45;3.25;;;10.60;99.90;;;;;;4998117;28;20231;-84
2022/04/22 05:27:48;;;;;;;3.70;3.40;;;10.70;99.90;;;;;;4998675;28;20201;-87
2022/04/22 05:33:03;;;;;;;3.72;3.42;;;10.70;99.90;;;;;;4999242;28;20274;-86
2022/04/22 05:35:32;;;;;;;3.95;3.65;;;10.70;99.90;;;;;;4995588;28;20247;-79
2022/04/22 05:38:01;;;;;;;3.83;3.53;;;10.80;99.90;;;;;;4994850;28;20215;-79
2022/04/22 05:40:30;;;;;;;4.28;3.92;;;10.80;99.90;;;;;;4994703;28;20220;-81
2022/04/22 05:42:58;;;;;;;4.35;3.65;;;10.80;99.90;;;;;;4998111;28;20197;-81
2022/04/22 05:45:26;;;;;;;3.70;3.40;;;10.70;99.90;;;;;;4996558;28;20279;-84
2022/04/22 05:47:54;;;;;;;3.53;3.28;;;10.80;99.90;;;;;;4997237;28;20292;-80
2022/04/22 05:50:22;;;;;;;3.40;3.20;;;10.80;99.90;;;;;;4995728;28;20247;-85
2022/04/22 05:52:52;;;;;;;3.55;3.25;;;10.90;99.90;;;;;;5000923;28;20205;-84
2022/04/22 05:55:21;;;;;;;3.60;3.30;;;10.90;99.90;;;;;;4998644;28;20421;-81
2022/04/22 05:57:49;;;;;;;4.30;3.13;;;11.00;99.90;;;;;;4995940;28;20641;-79
2022/04/22 06:00:18;;;;;;;3.47;3.17;;;11.00;99.90;;;;;;4995155;28;20628;-84
2022/04/22 06:02:46;;;;;;;3.35;3.08;;;11.10;99.90;;;;;;4996524;28;20884;-82
2022/04/22 06:05:15;;;;;;;3.10;2.90;;;11.10;99.90;;;;;;5000741;28;20500;-84
2022/04/22 06:07:43;;;;;;;3.95;3.55;;;11.20;99.90;;;;;;5000927;28;20184;-82
2022/04/22 06:12:58;;;;;;;3.70;3.20;;;11.20;99.90;;;;;;4997929;28;20726;-78
2022/04/22 06:15:25;;;;;;;3.85;3.55;;;11.30;99.90;;;;;;5001851;28;20232;-79
2022/04/22 06:17:53;;;;;;;3.60;3.30;;;11.30;99.90;;;;;;5000314;28;20197;-84
2022/04/22 06:20:20;;;;;;;3.50;3.20;;;11.30;99.90;;;;;;5007041;28;20754;-82
2022/04/22 06:22:47;;;;;;;3.80;3.50;;;11.40;99.90;;;;;;5007701;28;20219;-78
2022/04/22 06:25:16;;;;;;;4.68;4.28;;;11.40;99.90;;;;;;5006993;28;20220;-81
2022/04/22 06:27:45;;;;;;;4.93;4.50;;;11.40;99.90;;;;;;5001021;28;20212;-84
2022/04/22 06:30:14;;;;;;;4.57;4.15;;;11.40;99.90;;;;;;4997319;28;20225;-81
2022/04/22 06:32:43;;;;;;;4.13;3.72;;;11.40;99.90;;;;;;5004354;28;20208;-83
2022/04/22 06:35:12;;;;;;;4.45;4.07;;;11.50;99.90;;;;;;4999145;28;20307;-80
2022/04/22 06:37:42;;;;;;;4.53;4.13;;;11.50;99.90;;;;;;5006168;28;20698;-85
2022/04/22 06:45:52;;;;;;;4.43;4.03;;;11.70;99.90;;;;;;4997707;28;20706;-83
2022/04/22 06:48:21;;;;;;;4.70;4.30;;;11.70;99.90;;;;;;5001716;28;20208;-79
2022/04/22 06:50:49;;;;;;;5.75;5.15;;;11.70;99.90;;;;;;5000608;28;20234;-81
2022/04/22 06:53:17;;;;;;;4.85;4.32;;;11.70;99.90;;;;;;5001679;28;20208;-83
2022/04/22 06:55:45;;;;;;;4.53;4.13;;;11.70;99.90;;;;;;5004150;28;20727;-81
2022/04/22 06:58:15;;;;;;;6.13;3.92;;;11.70;99.90;;;;;;5005252;28;20203;-80
2022/04/22 07:00:43;;;;;;;5.15;4.18;;;11.60;99.90;;;;;;4998353;28;20706;-78
2022/04/22 07:03:11;;;;;;;8.07;5.15;;;11.70;99.90;;;;;;5003632;28;20201;-82
2022/04/22 07:05:40;;;;;;;7.30;5.55;;;11.70;99.90;;;;;;5003230;28;20672;-85
2022/04/22 07:08:13;;;;;;;5.45;4.95;;;11.70;99.90;;;;;;5006025;28;20193;-83
2022/04/22 07:10:40;;;;;;;6.65;5.20;;;11.60;99.90;;;;;;5000468;28;20460;-84
2022/04/22 07:13:08;;;;;;;5.43;4.93;;;11.60;99.90;;;;;;4998429;28;20726;-86
2022/04/22 07:15:38;;;;;;;5.30;4.82;;;11.60;99.90;;;;;;5010727;28;20740;-80
2022/04/22 07:18:05;;;;;;;4.50;3.90;;;11.60;99.90;;;;;;5002722;28;20571;-83
2022/04/22 07:20:33;;;;;;;4.50;4.13;;;11.70;99.90;;;;;;5004414;28;20247;-81
2022/04/22 07:23:01;;;;;;;4.90;4.45;;;11.90;99.90;;;;;;5001540;28;20215;-83
2022/04/22 07:25:29;;;;;;;5.80;5.30;;;12.00;99.90;;;;;;4997529;28;20233;-84
2022/04/22 07:27:58;;;;;;;6.15;5.55;;;12.10;99.90;;;;;;4998213;28;20205;-80
2022/04/22 07:30:26;;;;;;;6.40;5.43;;;12.20;99.90;;;;;;4999166;28;20231;-83
2022/04/22 07:32:55;;;;;;;6.03;5.50;;;12.20;99.90;;;;;;5006350;28;20643;-84
2022/04/22 07:35:23;;;;;;;5.50;5.00;;;12.30;99.90;;;;;;5005307;28;20255;-79
2022/04/22 07:37:52;;;;;;;5.82;5.22;;;12.20;99.90;;;;;;5001758;28;20203;-80
2022/04/22 07:40:21;;;;;;;6.30;5.72;;;12.20;99.90;;;;;;5004709;28;20224;-84
2022/04/22 07:48:22;;;;;;;6.97;6.28;;;12.30;99.90;;;;;;5001135;28;20661;-82
2022/04/22 07:50:50;;;;;;;9.02;6.60;;;12.30;99.90;;;;;;5000771;28;20222;-78
2022/04/22 07:53:18;;;;;;;6.93;5.85;;;12.40;99.90;;;;;;5004212;28;20559;-79
2022/04/22 07:55:46;;;;;;;6.05;5.45;;;12.40;99.90;;;;;;5005491;28;20216;-85
2022/04/22 07:58:14;;;;;;;7.43;6.22;;;12.60;99.90;;;;;;5003610;28;20207;-77
2022/04/22 08:00:43;;;;;;;6.60;5.85;;;12.60;99.90;;;;;;5001989;28;20299;-79
2022/04/22 08:03:10;;;;;;;8.52;5.88;;;12.70;99.90;;;;;;5004228;28;20598;-78
2022/04/22 08:05:38;;;;;;;8.23;6.22;;;12.70;99.90;;;;;;4998719;28;20224;-79
2022/04/22 08:08:06;;;;;;;6.20;5.60;;;12.60;99.90;;;;;;5005498;28;20223;-82
2022/04/22 08:10:34;;;;;;;5.88;5.25;;;12.70;99.90;;;;;;5005872;28;20244;-80
2022/04/22 08:13:01;;;;;;;5.80;5.30;;;12.80;99.90;;;;;;5007562;28;20200;-77
2022/04/22 08:15:29;;;;;;;6.22;5.63;;;12.90;99.90;;;;;;5004552;28;20673;-83
2022/04/22 08:17:56;;;;;;;6.43;5.82;;;13.00;99.90;;;;;;5003486;28;20200;-80
2022/04/22 08:20:24;;;;;;;8.55;6.28;;;13.10;99.90;;;;;;5005008;28;20315;-80
2022/04/22 08:22:52;;;;;;;6.13;5.60;;;13.10;99.90;;;;;;5006966;28;20730;-82
2022/04/22 08:25:19;;;;;;;6.50;5.82;;;13.20;99.90;;;;;;5003917;28;20235;-83
2022/04/22 08:27:47;;;;;;;6.20;5.60;;;13.30;99.90;;;;;;5008680;28;20189;-86
2022/04/22 08:30:14;;;;;;;6.32;5.80;;;13.30;99.90;;;;;;5005532;28;20213;-81
2022/04/22 08:32:42;;;;;;;6.75;5.95;;;13.30;99.90;;;;;;5004173;28;20200;-84
2022/04/22 08:35:10;;;;;;;6.22;5.63;;;13.30;99.90;;;;;;5004259;28;20203;-76
2022/04/22 08:37:38;;;;;;;6.40;5.80;;;13.50;99.90;;;;;;5006207;28;20188;-81
2022/04/22 08:40:09;;;;;;;5.43;4.93;;;13.50;99.90;;;;;;5001246;28;20301;-80
2022/04/22 08:42:38;;;;;;;5.45;4.65;;;13.60;99.90;;;;;;5002423;28;20228;-78
2022/04/22 08:45:07;;;;;;;5.03;4.53;;;13.90;99.90;;;;;;5000370;28;20580;-75
2022/04/22 08:50:19;;;;;;;5.10;4.60;;;14.30;99.90;;;;;;4998526;28;20644;-75
2022/04/22 08:52:54;;;;;;;5.47;4.97;;;14.60;99.90;;;;;;5000020;28;20204;-76
2022/04/22 08:55:24;;;;;;;5.15;4.75;;;14.80;99.90;;;;;;5000840;28;20693;-78
2022/04/22 08:57:54;;;;;;;7.45;4.88;;;14.80;99.90;;;;;;4999189;28;20196;-77
2022/04/22 09:00:23;;;;;;;4.68;4.07;;;14.90;99.90;;;;;;4999838;28;20789;-79
2022/04/22 09:02:51;;;;;;;5.50;5.10;;;15.10;99.90;;;;;;5000363;28;20196;-78
2022/04/22 09:05:18;;;;;;;5.60;5.10;;;15.20;99.90;;;;;;4998499;28;20199;-82
2022/04/22 09:07:46;;;;;;;6.38;5.70;;;15.20;99.90;;;;;;4997446;28;20254;-77
2022/04/22 09:10:13;;;;;;;5.22;4.75;;;15.00;99.90;;;;;;4995580;28;20227;-80
2022/04/22 09:12:52;;;;;;;6.13;5.53;;;15.10;99.90;;;;;;4999434;28;20192;-79
2022/04/22 09:15:21;;;;;;;6.22;5.68;;;15.10;99.90;;;;;;4996019;28;20200;-78
2022/04/22 09:17:49;;;;;;;5.40;4.90;;;15.10;99.90;;;;;;4998949;28;20324;-79
2022/04/22 09:20:16;;;;;;;5.68;5.18;;;15.10;99.90;;;;;;4997079;28;20221;-78
2022/04/22 09:22:45;;;;;;;6.68;5.10;;;15.10;99.90;;;;;;5000781;28;20426;-80
2022/04/22 09:25:12;;;;;;;5.93;4.63;;;15.20;99.90;;;;;;5000825;28;20863;-80
2022/04/22 09:27:42;;;;;;;5.47;4.97;;;15.20;99.90;;;;;;4996073;28;20227;-79
2022/04/22 09:30:12;;;;;;;6.03;4.80;;;15.30;99.90;;;;;;4994972;28;20343;-81
2022/04/22 09:32:41;;;;;;;5.38;4.85;;;15.30;99.90;;;;;;5000190;28;20293;-78
2022/04/22 09:35:10;;;;;;;5.57;5.07;;;15.30;99.90;;;;;;4998520;28;20582;-76
2022/04/22 09:43:23;;;;;;;5.28;4.78;;;15.50;99.90;;;;;;4996745;28;20262;-78
2022/04/22 09:45:55;;;;;;;4.38;3.97;;;15.60;99.90;;;;;;4993184;28;20258;-81
2022/04/22 09:48:22;;;;;;;4.82;4.25;;;15.70;99.90;;;;;;4990905;28;20200;-81
2022/04/22 09:50:52;;;;;;;6.13;4.85;;;15.90;99.90;;;;;;5016782;23;20224;-74
2022/04/22 09:53:32;;;;;;;4.93;4.43;;;15.90;99.90;;;;;;5020436;28;20203;-74
2022/04/22 09:55:59;;;;;;;5.18;4.70;;;15.90;99.90;;;;;;5023759;28;20223;-75
2022/04/22 09:58:28;;;;;;;5.80;4.55;;;16.00;99.90;;;;;;5015412;28;20460;-75
2022/04/22 10:01:01;;;;;;;4.93;4.38;;;16.10;99.90;;;;;;5016117;28;20235;-74
2022/04/22 10:03:30;;;;;;;4.40;4.00;;;16.20;99.90;;;;;;5017164;28;20437;-75
2022/04/22 10:05:58;;;;;;;4.70;4.30;;;16.30;99.90;;;;;;5018500;28;20273;-75
2022/04/22 10:08:28;;;;;;;4.63;4.22;;;16.20;99.90;;;;;;5022955;28;20204;-75
2022/04/22 10:11:00;;;;;;;4.18;3.78;;;16.20;99.90;;;;;;5020295;28;20350;-76
2022/04/22 10:13:33;;;;;;;4.40;4.00;;;16.10;99.90;;;;;;5018245;28;20274;-74
2022/04/22 10:16:03;;;;;;;4.38;3.97;;;16.20;99.90;;;;;;5019189;28;20794;-76
2022/04/22 10:18:31;;;;;;;4.40;4.00;;;16.40;99.90;;;;;;5019169;28;20203;-74
2022/04/22 10:20:59;;;;;;;4.70;4.30;;;16.50;99.90;;;;;;5020228;28;20310;-74
2022/04/22 10:23:27;;;;;;;4.57;4.18;;;16.60;99.90;;;;;;5021211;28;20734;-76
2022/04/22 10:25:54;;;;;;;5.07;4.57;;;16.60;99.90;;;;;;5020077;28;20308;-78
2022/04/22 10:28:23;;;;;;;5.15;4.72;;;16.40;99.90;;;;;;5018099;28;20582;-76
2022/04/22 10:30:52;;;;;;;4.93;4.53;;;16.40;99.90;;;;;;5019333;28;20273;-76
2022/04/22 10:33:25;;;;;;;5.38;4.88;;;16.30;99.90;;;;;;5021025;28;20203;-77
2022/04/22 10:35:58;;;;;;;5.47;4.55;;;16.30;99.90;;;;;;5017277;28;20218;-74
2022/04/22 10:38:30;;;;;;;4.20;3.78;;;16.20;99.90;;;;;;5021203;28;20306;-74
2022/04/22 10:41:00;;;;;;;4.72;4.30;;;16.20;99.90;;;;;;5015403;28;20228;-74
2022/04/22 10:43:28;;;;;;;4.07;3.78;;;16.20;99.90;;;;;;5018454;28;20727;-73
2022/04/22 10:48:42;;;;;;;5.30;4.80;;;16.10;99.90;;;;;;5018267;28;20198;-75
2022/04/22 10:51:13;;;;;;;4.90;4.50;;;16.00;99.90;;;;;;5024701;28;20223;-75
2022/04/22 10:53:49;;;;;;;4.53;4.13;;;15.90;99.90;;;;;;5015823;28;20202;-75
2022/04/22 10:56:36;;;;;;;3.70;3.40;;;15.80;99.90;;;;;;5019301;28;20227;-75
2022/04/22 10:59:24;;;;;;;4.75;4.10;;;15.90;99.90;;;;;;5017193;28;20544;-74
2022/04/22 11:01:52;;;;;;;4.25;3.85;;;16.10;99.90;;;;;;5009512;28;20312;-73
2022/04/22 11:04:23;;;;;;;4.57;4.18;;;16.20;99.90;;;;;;5015184;28;20636;-75
2022/04/22 11:06:50;;;;;;;4.45;4.05;;;16.30;99.90;;;;;;5021188;28;20250;-75
2022/04/22 11:09:25;;;;;;;4.45;4.13;;;16.40;99.90;;;;;;5017897;28;20207;-74
2022/04/22 11:11:52;;;;;;;4.95;4.50;;;16.40;99.90;;;;;;5020080;28;20294;-75
2022/04/22 11:14:21;;;;;;;4.68;4.28;;;16.50;99.90;;;;;;5019231;28;20195;-73
2022/04/22 11:16:48;;;;;;;6.22;4.75;;;16.60;99.90;;;;;;5016517;28;20645;-74
2022/04/22 11:19:57;;;;;;;5.35;4.85;;;16.50;99.90;;;;;;5016160;28;20629;-73
2022/04/22 11:22:56;;;;;;;4.93;4.50;;;16.70;99.90;;;;;;5019201;28;20220;-74
2022/04/22 11:25:25;;;;;;;4.30;4.00;;;16.90;99.90;;;;;;5018914;28;20661;-73
2022/04/22 11:27:55;;;;;;;4.45;4.10;;;16.90;99.90;;;;;;5014544;28;20223;-74
2022/04/22 11:30:22;;;;;;;5.97;5.40;;;16.90;99.90;;;;;;5016019;28;20277;-74
2022/04/22 11:32:53;;;;;;;6.68;5.00;;;16.80;99.90;;;;;;5020152;28;20396;-74
2022/04/22 11:35:23;;;;;;;6.43;4.93;;;16.70;99.90;;;;;;5018121;28;20256;-74
2022/04/22 11:38:00;;;;;;;6.70;5.20;;;16.60;99.90;;;;;;5016415;28;20250;-73
2022/04/22 11:40:27;;;;;;;5.00;4.60;;;16.50;99.90;;;;;;5015614;28;20293;-73
2022/04/22 11:42:55;;;;;;;5.13;4.60;;;16.30;99.90;;;;;;5019748;28;20236;-74
2022/04/22 11:45:22;;;;;;;5.10;4.63;;;16.10;99.90;;;;;;5015202;28;20281;-74
2022/04/22 11:47:50;;;;;;;6.50;5.20;;;16.00;99.90;;;;;;5012905;28;20223;-75
2022/04/22 11:50:22;;;;;;;5.05;4.55;;;15.90;99.90;;;;;;5015566;28;20231;-75
2022/04/22 11:52:54;;;;;;;4.47;4.13;;;15.90;99.90;;;;;;5016069;28;20231;-75
2022/04/22 11:55:22;;;;;;;4.65;4.25;;;15.90;99.90;;;;;;5016083;28;20517;-75
2022/04/22 11:57:51;;;;;;;4.50;4.10;;;15.80;99.90;;;;;;5015223;28;20303;-73
2022/04/22 12:05:52;;;;;;;10.43;5.03;;;15.60;99.90;;;;;;5007687;28;20241;-73
2022/04/22 12:08:19;;;;;;;5.97;4.30;;;15.60;99.90;;;;;;5011858;28;20301;-76
2022/04/22 12:10:48;;;;;;;4.85;4.40;;;15.60;99.90;;;;;;5015675;28;20219;-76
2022/04/22 12:13:16;;;;;;;5.15;4.65;;;15.60;99.90;;;;;;5018106;28;20223;-75
2022/04/22 12:15:46;;;;;;;5.50;4.47;;;15.50;99.90;;;;;;5018438;28;20667;-75
2022/04/22 12:18:29;;;;;;;4.70;4.30;;;15.50;99.90;;;;;;5015682;28;20869;-74
2022/04/22 12:20:58;;;;;;;4.00;3.70;;;15.50;99.90;;;;;;5013875;28;20219;-76
2022/04/22 12:23:37;;;;;;;5.40;4.18;;;15.50;99.90;;;;;;5013745;28;20230;-75
2022/04/22 12:26:04;;;;;;;4.82;4.43;;;15.50;99.90;;;;;;5015297;28;20255;-75
2022/04/22 12:28:31;;;;;;;4.13;3.80;;;15.60;99.90;;;;;;5014084;28;20199;-76
2022/04/22 12:30:58;;;;;;;6.72;4.68;;;15.70;99.90;;;;;;5015330;28;20227;-75
2022/04/22 12:33:25;;;;;;;4.75;4.35;;;15.80;99.90;;;;;;5011922;28;20314;-75
2022/04/22 12:36:07;;;;;;;6.13;4.57;;;15.70;99.90;;;;;;5016915;28;20196;-75
2022/04/22 12:38:36;;;;;;;5.10;4.60;;;15.70;99.90;;;;;;5018152;28;20219;-75
2022/04/22 12:41:03;;;;;;;5.25;3.75;;;15.60;99.90;;;;;;5014987;28;20265;-74
2022/04/22 12:43:33;;;;;;;4.65;4.25;;;15.60;99.90;;;;;;5015449;28;20223;-76
2022/04/22 12:52:11;;;;;;;5.80;5.22;;;15.30;99.90;;;;;;4984771;28;200598;-76
2022/04/22 12:54:41;;;;;;;4.43;4.13;;;15.30;99.90;;;;;;5003812;28;20303;-75
2022/04/22 12:57:11;;;;;;;4.85;4.43;;;15.40;99.90;;;;;;5014419;28;20277;-75
2022/04/22 12:59:43;;;;;;;4.80;4.40;;;15.40;99.90;;;;;;5013008;28;20654;-74
2022/04/22 13:02:10;;;;;;;3.80;3.50;;;15.50;99.90;;;;;;5010385;28;20220;-74
2022/04/22 13:04:54;;;;;;;4.13;3.78;;;15.70;99.90;;;;;;5013057;28;20223;-75
2022/04/22 13:07:23;;;;;;;4.85;4.45;;;15.80;99.90;;;;;;5010194;28;20204;-75
2022/04/22 13:09:50;;;;;;;4.35;3.95;;;15.80;99.90;;;;;;5010909;28;20227;-75
2022/04/22 13:12:17;;;;;;;4.78;3.55;;;15.80;99.90;;;;;;5012192;28;20199;-75
2022/04/22 13:14:45;;;;;;;4.00;3.60;;;15.90;99.90;;;;;;5008780;28;20219;-74
2022/04/22 13:17:24;;;;;;;3.83;3.53;;;15.90;99.90;;;;;;5012213;28;20218;-73
2022/04/22 13:19:51;;;;;;;4.10;3.70;;;16.00;99.90;;;;;;5012693;28;20674;-76
2022/04/22 13:22:18;;;;;;;4.80;3.65;;;16.00;99.90;;;;;;5016684;28;20250;-75
2022/04/22 13:24:46;;;;;;;3.80;3.50;;;16.00;99.90;;;;;;5012571;28;20220;-74
2022/04/22 13:27:14;;;;;;;3.58;3.17;;;16.00;99.90;;;;;;5024285;28;20199;-75
2022/04/22 13:29:42;;;;;;;3.20;3.00;;;16.00;99.90;;;;;;5025021;28;20280;-75
2022/04/22 13:32:10;;;;;;;3.92;3.33;;;16.00;99.90;;;;;;5022137;28;20207;-76
2022/04/22 13:34:38;;;;;;;5.18;4.18;;;16.00;99.90;;;;;;5019776;28;20227;-74
2022/04/22 13:37:06;;;;;;;3.55;3.25;;;16.00;99.90;;;;;;5016694;28;20207;-75
2022/04/22 13:39:33;;;;;;;4.32;3.60;;;16.00;99.90;;;;;;5022229;28;20223;-75
2022/04/22 13:42:01;;;;;;;4.55;4.10;;;16.00;99.90;;;;;;5021093;28;20311;-75
2022/04/22 13:52:42;;;;;;;3.83;3.53;;;15.90;99.90;;;;;;5020570;28;20290;-73
2022/04/22 13:55:10;;;;;;;4.68;3.65;;;15.90;99.90;;;;;;5020940;28;20522;-76
2022/04/22 13:57:38;;;;;;;4.47;4.07;;;16.00;99.90;;;;;;5020083;28;20230;-75
2022/04/22 14:00:07;;;;;;;5.45;4.20;;;16.00;99.90;;;;;;5020138;28;20284;-74
2022/04/22 14:02:34;;;;;;;4.10;3.75;;;15.80;99.90;;;;;;5018062;28;20212;-75